createdAt,value
2019-02-26T00:00:52.018Z,103442.17
2019-02-26T00:03:23.913Z,103432.54
2019-02-26T00:05:54.274Z,103416.27
2019-02-26T00:08:24.611Z,103415.47
2019-02-26T00:10:56.772Z,103415.83
2019-02-26T00:13:27.238Z,103411.34
2019-02-26T00:15:57.209Z,103400.60
2019-02-26T00:18:26.689Z,103400.84
2019-02-26T00:20:58.512Z,103408.70
2019-02-26T00:23:28.038Z,103415.55
2019-02-26T00:25:58.880Z,103414.77
2019-02-26T00:28:28.392Z,103407.03
2019-02-26T00:30:59.507Z,103406.48
2019-02-26T00:33:29.143Z,103411.01
2019-02-26T00:35:58.862Z,103412.52
2019-02-26T00:38:27.562Z,103407.28
2019-02-26T00:40:57.809Z,103408.95
2019-02-26T00:43:27.912Z,103416.56
2019-02-26T00:45:58.268Z,103412.34
2019-02-26T00:48:27.259Z,103411.34
2019-02-26T00:50:56.593Z,103413.41
2019-02-26T00:53:28.319Z,103425.54
2019-02-26T00:55:58.628Z,103411.34
2019-02-26T00:58:27.193Z,103409.73
2019-02-26T01:00:55.904Z,103418.95
2019-02-26T01:03:24.700Z,103418.86
2019-02-26T01:05:54.547Z,103417.44
2019-02-26T01:08:23.286Z,103420.44
2019-02-26T01:10:52.052Z,103415.95
2019-02-26T01:13:22.507Z,103411.73
2019-02-26T01:15:51.191Z,103409.14
2019-02-26T01:18:22.056Z,103410.14
2019-02-26T01:20:52.270Z,103411.33
2019-02-26T01:23:22.178Z,103409.39
2019-02-26T01:25:54.197Z,103409.97
2019-02-26T01:28:22.606Z,103410.52
2019-02-26T01:30:55.527Z,103408.64
2019-02-26T01:33:24.364Z,103403.14
2019-02-26T01:35:53.449Z,103402.36
2019-02-26T01:38:23.790Z,103399.80
2019-02-26T01:40:54.145Z,103396.61
2019-02-26T01:43:22.849Z,103398.58
2019-02-26T01:45:54.959Z,103421.04
2019-02-26T01:48:21.951Z,103388.94
2019-02-26T01:50:52.218Z,103391.28
2019-02-26T01:53:21.956Z,103382.37
2019-02-26T01:55:52.636Z,103377.83
2019-02-26T01:58:21.353Z,103372.48
2019-02-26T02:00:50.058Z,103375.78
2019-02-26T02:03:20.860Z,103370.84
2019-02-26T02:05:50.288Z,103355.26
2019-02-26T02:08:20.811Z,103355.72
2019-02-26T02:10:53.638Z,103355.26
2019-02-26T02:13:20.632Z,103346.80
2019-02-26T02:15:49.253Z,103341.92
2019-02-26T02:18:20.135Z,103340.43
2019-02-26T02:20:48.243Z,103334.42
2019-02-26T02:23:18.866Z,103328.81
2019-02-26T02:25:47.292Z,103328.74
2019-02-26T02:28:16.682Z,103341.91
2019-02-26T02:30:46.452Z,103340.25
2019-02-26T02:33:19.616Z,103336.66
2019-02-26T02:35:45.708Z,103343.49
2019-02-26T02:38:19.524Z,103343.67
2019-02-26T02:40:46.303Z,103348.19
2019-02-26T02:43:17.540Z,103342.70
2019-02-26T02:45:47.477Z,103342.28
2019-02-26T02:48:15.956Z,103345.06
2019-02-26T02:50:44.627Z,103344.84
2019-02-26T02:53:13.317Z,103343.07
2019-02-26T02:55:44.269Z,103342.11
2019-02-26T02:58:15.853Z,103340.84
2019-02-26T03:00:43.611Z,103344.28
2019-02-26T03:03:12.129Z,103343.24
2019-02-26T03:05:43.205Z,103345.16
2019-02-26T03:08:13.413Z,103347.23
2019-02-26T03:10:43.059Z,103345.69
2019-02-26T03:13:11.971Z,103345.11
2019-02-26T03:15:40.746Z,103354.70
2019-02-26T03:18:11.998Z,103350.53
2019-02-26T03:20:40.442Z,103354.80
2019-02-26T03:23:12.345Z,103357.02
2019-02-26T03:25:41.594Z,103358.09
2019-02-26T03:28:10.383Z,103360.49
2019-02-26T03:30:44.043Z,103350.80
2019-02-26T03:33:09.396Z,103353.20
2019-02-26T03:35:38.114Z,103350.91
2019-02-26T03:38:06.813Z,103350.80
2019-02-26T03:40:36.109Z,103346.58
2019-02-26T03:43:07.599Z,103342.53
2019-02-26T03:45:35.889Z,103341.59
2019-02-26T03:48:05.319Z,103346.91
2019-02-26T03:50:34.022Z,103320.98
2019-02-26T03:53:02.775Z,103344.97
2019-02-26T03:55:33.608Z,103354.67
2019-02-26T03:58:02.304Z,103349.59
2019-02-26T04:00:34.605Z,103346.67
2019-02-26T04:03:03.512Z,103345.49
2019-02-26T04:05:32.826Z,103340.42
2019-02-26T04:08:03.706Z,103349.93
2019-02-26T04:10:31.867Z,103351.56
2019-02-26T04:13:00.509Z,103356.82
2019-02-26T04:15:31.040Z,103361.00
2019-02-26T04:17:59.582Z,103361.00
2019-02-26T04:20:28.324Z,103355.93
2019-02-26T04:22:57.214Z,103359.22
2019-02-26T04:25:52.094Z,103364.17
2019-02-26T04:28:47.424Z,103361.94
2019-02-26T04:31:27.671Z,103355.87
2019-02-26T04:34:01.909Z,103350.08
2019-02-26T04:36:34.372Z,103349.70
2019-02-26T04:39:25.069Z,103342.16
2019-02-26T04:42:06.230Z,103347.60
2019-02-26T04:44:58.189Z,103350.89
2019-02-26T04:47:30.849Z,103340.02
2019-02-26T04:50:00.483Z,103341.46
2019-02-26T04:52:30.119Z,103342.91
2019-02-26T04:54:59.786Z,103347.44
2019-02-26T04:57:28.516Z,103343.81
2019-02-26T04:59:58.998Z,103343.95
2019-02-26T05:02:27.644Z,103345.26
2019-02-26T05:04:58.588Z,103345.59
2019-02-26T05:07:27.284Z,103342.28
2019-02-26T05:09:58.782Z,103346.22
2019-02-26T05:12:30.346Z,103344.66
2019-02-26T05:14:57.642Z,103341.75
2019-02-26T05:17:27.913Z,103331.38
2019-02-26T05:19:56.808Z,103333.49
2019-02-26T05:22:27.676Z,103329.41
2019-02-26T05:24:55.897Z,103327.32
2019-02-26T05:27:25.088Z,103328.56
2019-02-26T05:29:54.751Z,103342.35
2019-02-26T05:32:27.002Z,103334.48
2019-02-26T05:34:54.807Z,103332.78
2019-02-26T05:37:23.581Z,103333.54
2019-02-26T05:39:54.639Z,103330.53
2019-02-26T05:42:22.733Z,103336.34
2019-02-26T05:44:53.838Z,103332.00
2019-02-26T05:47:23.928Z,103334.20
2019-02-26T05:49:52.107Z,103332.99
2019-02-26T05:52:21.906Z,103327.89
2019-02-26T05:54:52.708Z,103335.44
2019-02-26T05:57:29.164Z,103332.86
2019-02-26T05:59:52.813Z,103331.21
2019-02-26T06:02:23.951Z,103331.80
2019-02-26T06:04:52.451Z,103325.78
2019-02-26T06:07:24.091Z,103327.80
2019-02-26T06:09:55.717Z,103326.86
2019-02-26T06:12:22.272Z,103328.05
2019-02-26T06:14:51.471Z,103323.22
2019-02-26T06:17:20.501Z,103320.58
2019-02-26T06:19:51.012Z,103320.07
2019-02-26T06:22:21.394Z,103321.53
2019-02-26T06:24:50.193Z,103323.47
2019-02-26T06:27:22.034Z,103322.73
2019-02-26T06:29:52.816Z,103323.80
2019-02-26T06:32:19.807Z,103321.03
2019-02-26T06:34:48.370Z,103321.87
2019-02-26T06:37:24.446Z,103324.41
2019-02-26T06:39:55.699Z,103325.23
2019-02-26T06:42:23.651Z,103329.70
2019-02-26T06:44:52.509Z,103330.90
2019-02-26T06:47:23.358Z,103330.05
2019-02-26T06:49:52.702Z,103337.43
2019-02-26T06:52:21.752Z,103342.86
2019-02-26T06:54:54.766Z,103350.02
2019-02-26T06:57:20.780Z,103349.64
2019-02-26T06:59:50.932Z,103351.79
2019-02-26T07:02:19.974Z,103352.29
2019-02-26T07:04:48.608Z,103350.48
2019-02-26T07:07:17.347Z,103358.17
2019-02-26T07:09:46.053Z,103357.91
2019-02-26T07:12:16.875Z,103368.08
2019-02-26T07:14:46.427Z,103374.66
2019-02-26T07:17:15.531Z,103375.95
2019-02-26T07:19:44.141Z,103378.80
2019-02-26T07:22:13.502Z,103379.01
2019-02-26T07:24:44.556Z,103377.51
2019-02-26T07:27:13.929Z,103374.73
2019-02-26T07:29:45.718Z,103379.88
2019-02-26T07:32:14.825Z,103379.99
2019-02-26T07:34:45.272Z,103367.59
2019-02-26T07:37:15.832Z,103370.60
2019-02-26T07:39:46.722Z,103373.22
2019-02-26T07:42:18.337Z,103376.70
2019-02-26T07:44:45.434Z,103377.91
2019-02-26T07:47:14.135Z,103367.88
2019-02-26T07:49:42.724Z,103365.45
2019-02-26T07:52:11.405Z,103358.69
2019-02-26T07:54:42.223Z,103355.81
2019-02-26T07:57:10.526Z,103360.28
2019-02-26T07:59:40.417Z,103358.33
2019-02-26T08:02:11.351Z,103361.19
2019-02-26T08:04:41.789Z,103357.28
2019-02-26T08:07:11.120Z,103353.95
2019-02-26T08:09:39.795Z,103356.13
2019-02-26T08:12:10.800Z,103358.69
2019-02-26T08:14:41.049Z,103361.91
2019-02-26T08:17:09.318Z,103358.83
2019-02-26T08:19:39.886Z,103364.84
2019-02-26T08:22:08.332Z,103367.90
2019-02-26T08:24:37.042Z,103363.28
2019-02-26T08:27:06.506Z,103362.30
2019-02-26T08:29:36.262Z,103365.14
2019-02-26T08:32:05.340Z,103365.50
2019-02-26T08:34:34.034Z,103366.31
2019-02-26T08:37:02.904Z,103370.88
2019-02-26T08:39:31.623Z,103374.84
2019-02-26T08:42:10.157Z,103369.09
2019-02-26T08:44:38.815Z,103368.23
2019-02-26T08:47:11.151Z,103362.94
2019-02-26T08:49:40.109Z,103368.16
2019-02-26T08:52:08.383Z,103362.61
2019-02-26T08:54:37.014Z,103363.02
2019-02-26T08:57:05.661Z,103356.16
2019-02-26T08:59:35.054Z,103364.64
2019-02-26T09:02:03.794Z,103364.56
2019-02-26T09:04:32.415Z,103359.91
2019-02-26T09:07:02.110Z,103360.12
2019-02-26T09:09:32.838Z,103357.77
2019-02-26T09:12:03.234Z,103364.70
2019-02-26T09:14:37.307Z,103358.41
2019-02-26T09:17:04.566Z,103351.16
2019-02-26T09:19:35.506Z,103357.74
2019-02-26T09:22:03.812Z,103358.64
2019-02-26T09:24:32.503Z,103359.53
2019-02-26T09:27:02.697Z,103364.84
2019-02-26T09:29:31.623Z,103360.33
2019-02-26T09:32:00.253Z,103357.55
2019-02-26T09:34:31.566Z,103360.05
2019-02-26T09:37:01.176Z,103363.23
2019-02-26T09:39:31.897Z,103362.64
2019-02-26T09:42:02.239Z,103365.29
2019-02-26T09:44:31.490Z,103364.53
2019-02-26T09:47:04.442Z,103360.22
2019-02-26T09:49:33.722Z,103360.24
2019-02-26T09:52:03.831Z,103356.84
2019-02-26T09:54:32.377Z,103359.12
2019-02-26T09:57:02.704Z,103357.07
2019-02-26T09:59:33.535Z,103363.27
2019-02-26T10:02:04.082Z,103363.16
2019-02-26T10:04:32.264Z,103362.79
2019-02-26T10:07:02.273Z,103362.13
2019-02-26T10:09:32.988Z,103362.20
2019-02-26T10:12:02.771Z,103359.40
2019-02-26T10:14:33.512Z,103361.39
2019-02-26T10:17:02.718Z,103360.02
2019-02-26T10:19:33.231Z,103361.77
2019-02-26T10:22:03.538Z,103366.19
2019-02-26T10:24:34.367Z,103361.11
2019-02-26T10:27:05.400Z,103353.55
2019-02-26T10:29:36.643Z,103348.21
2019-02-26T10:32:03.518Z,103353.69
2019-02-26T10:34:32.212Z,103353.46
2019-02-26T10:37:00.864Z,103352.56
2019-02-26T10:39:29.586Z,103345.27
2019-02-26T10:42:01.979Z,103345.34
2019-02-26T10:44:28.665Z,103344.33
2019-02-26T10:46:58.236Z,103341.73
2019-02-26T10:49:28.803Z,103338.52
2019-02-26T10:51:58.568Z,103343.27
2019-02-26T10:54:30.923Z,103345.98
2019-02-26T10:57:00.142Z,103346.14
2019-02-26T10:59:28.040Z,103337.15
2019-02-26T11:01:58.580Z,103342.48
2019-02-26T11:04:34.475Z,103346.20
2019-02-26T11:06:59.396Z,103341.52
2019-02-26T11:09:29.887Z,103341.94
2019-02-26T11:12:00.809Z,103340.98
2019-02-26T11:14:30.939Z,103342.20
2019-02-26T11:16:59.272Z,103346.57
2019-02-26T11:19:33.026Z,103344.06
2019-02-26T11:22:00.862Z,103345.67
2019-02-26T11:24:30.849Z,103345.70
2019-02-26T11:26:59.087Z,103339.28
2019-02-26T11:29:28.543Z,103338.49
2019-02-26T11:31:58.310Z,103338.58
2019-02-26T11:34:28.694Z,103340.62
2019-02-26T11:36:58.576Z,103335.28
2019-02-26T11:39:27.834Z,103337.00
2019-02-26T11:41:58.639Z,103332.91
2019-02-26T11:44:27.737Z,103339.46
2019-02-26T11:46:57.034Z,103333.48
2019-02-26T11:49:25.841Z,103328.84
2019-02-26T11:51:54.623Z,103327.20
2019-02-26T11:54:23.419Z,103325.21
2019-02-26T11:56:52.607Z,103331.66
2019-02-26T11:59:21.711Z,103327.70
2019-02-26T12:01:50.442Z,103325.61
2019-02-26T12:04:19.097Z,103319.66
2019-02-26T12:06:47.741Z,103315.84
2019-02-26T12:09:16.454Z,103317.20
2019-02-26T12:11:45.115Z,103316.12
2019-02-26T12:14:16.407Z,103307.86
2019-02-26T12:16:44.252Z,103305.78
2019-02-26T12:19:12.889Z,103304.66
2019-02-26T12:21:41.543Z,103309.25
2019-02-26T12:24:12.567Z,103298.13
2019-02-26T12:26:42.307Z,103297.98
2019-02-26T12:29:11.152Z,103293.97
2019-02-26T12:31:39.816Z,103287.95
2019-02-26T12:34:11.621Z,103288.32
2019-02-26T12:36:38.933Z,103286.88
2019-02-26T12:39:09.242Z,103284.41
2019-02-26T12:41:39.765Z,103220.73
2019-02-26T12:44:11.433Z,103275.70
2019-02-26T12:46:38.821Z,103268.98
2019-02-26T12:49:09.370Z,103273.04
2019-02-26T12:51:37.912Z,103272.20
2019-02-26T12:54:09.299Z,103267.77
2019-02-26T12:56:37.467Z,103263.63
2019-02-26T12:59:07.582Z,103258.38
2019-02-26T13:01:39.755Z,103255.83
2019-02-26T13:04:09.618Z,103246.08
2019-02-26T13:06:41.007Z,103258.67
2019-02-26T13:09:09.588Z,103237.06
2019-02-26T13:11:39.753Z,103231.91
2019-02-26T13:14:09.199Z,103202.69
2019-02-26T13:16:42.486Z,103218.30
2019-02-26T13:19:13.794Z,103213.83
2019-02-26T13:21:44.950Z,103209.23
2019-02-26T13:24:21.114Z,103208.01
2019-02-26T13:26:54.347Z,103207.78
2019-02-26T13:29:26.562Z,103205.90
2019-02-26T13:32:00.833Z,103203.48
2019-02-26T13:34:34.633Z,103196.86
2019-02-26T13:37:09.344Z,103187.81
2019-02-26T13:39:45.448Z,103191.59
2019-02-26T13:42:19.158Z,103188.75
2019-02-26T13:44:45.927Z,103183.27
2019-02-26T13:47:14.702Z,103178.59
2019-02-26T13:49:44.187Z,103136.72
2019-02-26T13:52:19.066Z,103179.61
2019-02-26T13:54:49.887Z,103177.49
2019-02-26T13:57:21.239Z,103173.81
2019-02-26T13:59:50.161Z,103170.23
2019-02-26T14:02:18.940Z,103169.92
2019-02-26T14:04:47.657Z,103165.72
2019-02-26T14:07:16.515Z,103155.34
2019-02-26T14:09:45.215Z,103158.19
2019-02-26T14:12:14.120Z,103154.95
2019-02-26T14:14:42.900Z,103157.20
2019-02-26T14:17:11.548Z,103150.88
2019-02-26T14:19:40.271Z,103148.13
2019-02-26T14:22:08.968Z,103147.30
2019-02-26T14:24:37.947Z,103128.17
2019-02-26T14:27:07.349Z,103128.17
2019-02-26T14:29:36.134Z,103136.55
2019-02-26T14:32:05.034Z,103132.64
2019-02-26T14:34:33.820Z,103117.92
2019-02-26T14:37:02.574Z,103135.45
2019-02-26T14:39:31.309Z,103107.84
2019-02-26T14:41:59.974Z,103131.13
2019-02-26T14:44:28.713Z,103058.66
2019-02-26T14:46:57.370Z,103128.92
2019-02-26T14:49:26.149Z,103130.76
2019-02-26T14:51:55.067Z,103129.92
2019-02-26T14:54:23.690Z,103125.64
2019-02-26T14:56:52.329Z,103128.96
2019-02-26T14:59:21.066Z,103125.75
2019-02-26T15:01:49.701Z,103130.55
2019-02-26T15:04:18.379Z,103129.42
2019-02-26T15:06:47.054Z,103126.67
2019-02-26T15:09:15.810Z,103126.47
2019-02-26T15:11:44.452Z,103133.22
2019-02-26T15:14:13.319Z,103122.91
2019-02-26T15:16:41.969Z,103114.55
2019-02-26T15:19:10.613Z,103105.22
2019-02-26T15:21:39.330Z,103111.08
2019-02-26T15:24:08.318Z,103113.02
2019-02-26T15:26:36.968Z,103118.55
2019-02-26T15:29:05.663Z,103132.30
2019-02-26T15:31:34.417Z,103122.20
2019-02-26T15:34:03.277Z,103124.78
2019-02-26T15:36:32.254Z,103117.80
2019-02-26T15:39:00.939Z,103117.72
2019-02-26T15:41:29.759Z,103115.95
2019-02-26T15:43:58.480Z,103122.50
2019-02-26T15:46:28.580Z,103116.00
2019-02-26T15:48:57.594Z,103121.84
2019-02-26T15:51:26.343Z,103123.44
2019-02-26T15:53:55.566Z,103122.86
2019-02-26T15:56:25.357Z,103114.50
2019-02-26T15:58:54.013Z,103112.52
2019-02-26T16:01:22.760Z,103113.56
2019-02-26T16:03:51.445Z,103119.88
2019-02-26T16:06:20.080Z,103117.21
2019-02-26T16:08:48.741Z,103118.94
2019-02-26T16:11:17.448Z,103116.25
2019-02-26T16:13:46.177Z,103117.26
2019-02-26T16:16:14.908Z,103113.58
2019-02-26T16:18:43.638Z,103112.64
2019-02-26T16:21:12.288Z,103114.35
2019-02-26T16:23:41.322Z,103105.69
2019-02-26T16:26:10.145Z,103113.84
2019-02-26T16:28:39.917Z,103113.66
2019-02-26T16:31:08.883Z,103108.22
2019-02-26T16:33:38.313Z,103113.63
2019-02-26T16:36:07.834Z,103115.88
2019-02-26T16:38:37.207Z,103111.22
2019-02-26T16:41:05.999Z,103108.24
2019-02-26T16:43:35.184Z,103112.62
2019-02-26T16:46:12.849Z,103111.05
2019-02-26T16:48:43.141Z,103079.09
2019-02-26T16:51:12.317Z,103105.34
2019-02-26T16:53:40.986Z,103107.44
2019-02-26T16:56:13.342Z,103108.05
2019-02-26T16:58:42.188Z,103104.84
2019-02-26T17:01:11.221Z,103116.25
2019-02-26T17:03:39.984Z,103106.98
2019-02-26T17:06:08.723Z,103105.48
2019-02-26T17:08:37.583Z,103109.60
2019-02-26T17:11:06.220Z,103104.14
2019-02-26T17:13:35.279Z,103106.91
2019-02-26T17:16:03.994Z,103104.63
2019-02-26T17:18:42.807Z,103105.56
2019-02-26T17:21:12.215Z,103105.66
2019-02-26T17:23:40.916Z,103103.00
2019-02-26T17:26:09.672Z,103093.27
2019-02-26T17:28:38.448Z,103093.83
2019-02-26T17:31:07.121Z,103086.93
2019-02-26T17:33:35.778Z,103105.38
2019-02-26T17:36:05.642Z,103091.88
2019-02-26T17:38:34.427Z,103048.80
2019-02-26T17:41:03.177Z,103102.53
2019-02-26T17:43:31.887Z,103098.91
2019-02-26T17:46:00.530Z,103093.12
2019-02-26T17:48:31.042Z,103085.32
2019-02-26T17:50:59.727Z,103085.12
2019-02-26T17:53:28.369Z,103083.99
2019-02-26T17:55:57.079Z,103080.94
2019-02-26T17:58:37.253Z,103082.87
2019-02-26T18:01:07.514Z,103095.58
2019-02-26T18:03:36.227Z,103092.09
2019-02-26T18:06:05.154Z,103096.59
2019-02-26T18:08:34.075Z,103096.73
2019-02-26T18:11:02.715Z,103107.66
2019-02-26T18:13:31.339Z,103102.63
2019-02-26T18:16:08.747Z,103104.66
2019-02-26T18:18:34.240Z,103097.36
2019-02-26T18:21:01.065Z,103090.95
2019-02-26T18:23:29.990Z,103090.86
2019-02-26T18:25:58.718Z,103092.68
2019-02-26T18:28:27.388Z,103095.44
2019-02-26T18:30:56.124Z,103095.95
2019-02-26T18:33:24.796Z,103092.98
2019-02-26T18:35:53.552Z,103084.97
2019-02-26T18:38:22.226Z,103084.96
2019-02-26T18:40:54.281Z,103089.52
2019-02-26T18:43:23.744Z,103085.23
2019-02-26T18:45:52.365Z,103082.00
2019-02-26T18:48:20.995Z,103086.08
2019-02-26T18:50:49.713Z,103086.16
2019-02-26T18:53:18.491Z,103088.22
2019-02-26T18:55:47.198Z,103085.47
2019-02-26T18:58:16.473Z,103080.61
2019-02-26T19:00:47.472Z,103074.11
2019-02-26T19:03:16.251Z,103077.37
2019-02-26T19:05:44.969Z,103080.73
2019-02-26T19:08:13.606Z,103081.59
2019-02-26T19:10:42.329Z,103084.97
2019-02-26T19:13:11.221Z,103101.78
2019-02-26T19:15:40.638Z,103084.91
2019-02-26T19:18:12.629Z,103081.88
2019-02-26T19:20:44.289Z,103081.22
2019-02-26T19:23:13.719Z,103074.66
2019-02-26T19:25:42.550Z,103073.17
2019-02-26T19:28:11.471Z,103082.14
2019-02-26T19:30:40.197Z,103077.13
2019-02-26T19:33:08.917Z,103075.48
2019-02-26T19:35:40.329Z,103075.17
2019-02-26T19:38:09.969Z,103083.09
2019-02-26T19:40:44.511Z,103081.78
2019-02-26T19:43:17.565Z,103079.44
2019-02-26T19:45:46.636Z,103079.12
2019-02-26T19:48:15.734Z,103074.11
2019-02-26T19:50:48.583Z,103077.49
2019-02-26T19:53:16.732Z,103075.31
2019-02-26T19:55:49.803Z,103071.63
2019-02-26T19:58:19.291Z,103074.13
2019-02-26T20:00:52.746Z,103075.50
2019-02-26T20:03:19.602Z,103063.73
2019-02-26T20:05:48.437Z,103062.05
2019-02-26T20:08:27.417Z,103054.84
2019-02-26T20:10:57.716Z,103055.51
2019-02-26T20:13:27.331Z,103058.85
2019-02-26T20:15:56.195Z,103053.83
2019-02-26T20:18:26.026Z,103057.52
2019-02-26T20:20:55.399Z,103059.03
2019-02-26T20:23:27.046Z,103056.53
2019-02-26T20:25:55.743Z,103053.33
2019-02-26T20:28:24.412Z,103055.81
2019-02-26T20:30:53.307Z,103056.14
2019-02-26T20:33:22.044Z,103049.91
2019-02-26T20:35:50.749Z,103048.55
2019-02-26T20:38:19.507Z,103051.39
2019-02-26T20:40:48.930Z,103050.52
2019-02-26T20:43:18.555Z,103044.97
2019-02-26T20:45:48.662Z,103053.87
2019-02-26T20:48:18.128Z,103046.11
2019-02-26T20:50:47.136Z,103044.07
2019-02-26T20:53:15.907Z,103034.34
2019-02-26T20:55:52.224Z,103031.98
2019-02-26T20:58:15.510Z,103027.81
2019-02-26T21:00:44.487Z,103038.37
2019-02-26T21:03:18.873Z,103032.52
2019-02-26T21:05:48.823Z,103036.00
2019-02-26T21:08:19.765Z,103034.00
2019-02-26T21:10:53.155Z,103033.84
2019-02-26T21:13:29.071Z,103030.16
2019-02-26T21:16:06.699Z,103037.48
2019-02-26T21:18:35.860Z,103034.71
2019-02-26T21:21:05.578Z,103038.03
2019-02-26T21:23:36.195Z,102913.16
2019-02-26T21:26:05.120Z,103035.14
2019-02-26T21:28:34.268Z,103034.97
2019-02-26T21:31:03.732Z,103034.11
2019-02-26T21:33:32.386Z,103025.30
2019-02-26T21:36:01.024Z,103026.98
2019-02-26T21:38:29.852Z,103027.30
2019-02-26T21:40:58.580Z,103024.45
2019-02-26T21:43:27.347Z,103029.30
2019-02-26T21:45:55.956Z,103022.44
2019-02-26T21:48:24.830Z,103022.83
2019-02-26T21:50:54.834Z,103017.48
2019-02-26T21:53:24.257Z,103020.87
2019-02-26T21:55:53.010Z,103020.03
2019-02-26T21:58:21.820Z,103019.22
2019-02-26T22:00:50.534Z,103026.22
2019-02-26T22:03:19.279Z,103016.86
2019-02-26T22:05:47.997Z,103016.86
2019-02-26T22:08:16.647Z,103028.27
2019-02-26T22:10:45.342Z,103025.02
2019-02-26T22:13:14.145Z,103021.64
2019-02-26T22:15:44.565Z,103014.95
2019-02-26T22:18:13.436Z,103023.51
2019-02-26T22:20:42.173Z,103016.95
2019-02-26T22:23:10.917Z,103016.23
2019-02-26T22:25:39.543Z,103009.68
2019-02-26T22:28:09.207Z,103003.61
2019-02-26T22:30:38.603Z,103006.39
2019-02-26T22:33:07.908Z,103008.03
2019-02-26T22:35:38.164Z,103006.87
2019-02-26T22:38:06.804Z,103012.36
2019-02-26T22:40:35.633Z,103005.67
2019-02-26T22:43:05.325Z,103015.12
2019-02-26T22:45:33.970Z,103012.23
2019-02-26T22:48:02.858Z,103011.38
2019-02-26T22:50:31.571Z,103016.50
2019-02-26T22:53:03.718Z,103017.30
2019-02-26T22:55:30.830Z,103016.20
2019-02-26T22:58:02.594Z,103012.41
2019-02-26T23:00:55.362Z,103013.02
2019-02-26T23:03:24.189Z,103012.59
2019-02-26T23:05:53.813Z,103009.41
2019-02-26T23:08:23.683Z,103004.94
2019-02-26T23:10:56.948Z,103010.08
2019-02-26T23:13:24.807Z,103008.98
2019-02-26T23:15:54.580Z,103006.15
2019-02-26T23:18:24.334Z,103000.02
2019-02-26T23:20:53.119Z,103001.16
2019-02-26T23:23:22.419Z,102998.41
2019-02-26T23:25:51.270Z,102997.26
2019-02-26T23:28:21.997Z,102994.20
2019-02-26T23:30:50.551Z,102986.74
2019-02-26T23:33:20.003Z,102978.84
2019-02-26T23:35:49.730Z,102975.16
2019-02-26T23:38:19.468Z,102982.68
2019-02-26T23:40:48.054Z,102975.13
2019-02-26T23:43:16.879Z,102981.34
2019-02-26T23:45:45.612Z,102980.12
2019-02-26T23:48:14.292Z,102980.91
2019-02-26T23:50:47.110Z,102978.04
2019-02-26T23:53:13.571Z,102983.73
2019-02-26T23:55:46.256Z,102985.38
2019-02-26T23:58:13.678Z,102985.38
